createdAt,value
2018-05-27T00:02:26.121Z,19.40
2018-05-27T00:04:53.669Z,19.40
2018-05-27T00:07:21.188Z,19.30
2018-05-27T00:09:49.697Z,19.00
2018-05-27T00:12:17.357Z,19.00
2018-05-27T00:14:44.900Z,19.00
2018-05-27T00:17:13.407Z,18.90
2018-05-27T00:19:40.925Z,18.90
2018-05-27T00:22:09.397Z,19.10
2018-05-27T00:24:36.932Z,19.00
2018-05-27T00:27:04.612Z,19.30
2018-05-27T00:29:32.312Z,19.40
2018-05-27T00:31:59.857Z,19.50
2018-05-27T00:34:27.380Z,19.60
2018-05-27T00:36:55.031Z,19.30
2018-05-27T00:39:22.548Z,18.90
2018-05-27T00:41:50.421Z,18.90
2018-05-27T00:44:17.941Z,19.30
2018-05-27T00:46:46.431Z,18.90
2018-05-27T00:49:13.990Z,18.90
2018-05-27T00:51:42.282Z,18.70
2018-05-27T00:54:09.829Z,18.60
2018-05-27T00:56:37.349Z,18.60
2018-05-27T00:59:04.916Z,18.50
2018-05-27T01:01:32.525Z,18.60
2018-05-27T01:04:00.068Z,18.50
2018-05-27T01:06:27.572Z,18.50
2018-05-27T01:08:55.130Z,18.40
2018-05-27T01:11:22.668Z,18.40
2018-05-27T01:13:50.349Z,18.70
2018-05-27T01:16:17.864Z,18.60
2018-05-27T01:18:45.398Z,18.80
2018-05-27T01:21:13.809Z,18.60
2018-05-27T01:23:41.391Z,18.50
2018-05-27T01:26:08.933Z,18.60
2018-05-27T01:28:36.457Z,18.50
2018-05-27T01:31:03.998Z,18.40
2018-05-27T01:33:32.325Z,18.40
2018-05-27T01:36:00.141Z,18.40
2018-05-27T01:38:28.557Z,18.60
2018-05-27T01:40:56.097Z,18.60
2018-05-27T01:43:23.627Z,18.70
2018-05-27T01:45:51.342Z,18.70
2018-05-27T01:48:18.969Z,18.90
2018-05-27T01:50:46.560Z,19.00
2018-05-27T01:53:14.145Z,18.70
2018-05-27T01:55:41.881Z,18.50
2018-05-27T01:58:09.432Z,18.20
2018-05-27T02:00:36.994Z,18.20
2018-05-27T02:03:04.512Z,18.10
2018-05-27T02:05:33.028Z,18.10
2018-05-27T02:08:00.580Z,18.00
2018-05-27T02:10:28.144Z,18.00
2018-05-27T02:12:55.764Z,18.10
2018-05-27T02:15:24.061Z,18.20
2018-05-27T02:17:51.741Z,18.10
2018-05-27T02:20:19.299Z,18.10
2018-05-27T02:22:46.820Z,18.30
2018-05-27T02:25:15.121Z,18.50
2018-05-27T02:27:42.689Z,18.50
2018-05-27T02:30:10.193Z,18.10
2018-05-27T02:32:37.741Z,18.10
2018-05-27T02:35:05.366Z,18.00
2018-05-27T02:37:32.896Z,18.00
2018-05-27T02:40:00.481Z,17.90
2018-05-27T02:42:28.021Z,18.00
2018-05-27T02:44:55.646Z,18.20
2018-05-27T02:47:23.212Z,18.00
2018-05-27T02:49:50.816Z,18.20
2018-05-27T02:52:18.318Z,18.30
2018-05-27T02:54:45.992Z,18.20
2018-05-27T02:57:14.428Z,17.80
2018-05-27T02:59:41.999Z,17.80
2018-05-27T03:02:09.524Z,17.80
2018-05-27T03:04:37.057Z,17.70
2018-05-27T03:07:05.393Z,18.00
2018-05-27T03:09:33.022Z,18.00
2018-05-27T03:12:00.538Z,18.20
2018-05-27T03:14:28.816Z,18.20
2018-05-27T03:16:57.126Z,18.10
2018-05-27T03:19:24.644Z,18.00
2018-05-27T03:21:53.064Z,17.80
2018-05-27T03:24:20.630Z,17.80
2018-05-27T03:26:48.185Z,17.80
2018-05-27T03:29:15.710Z,17.70
2018-05-27T03:31:44.164Z,17.60
2018-05-27T03:34:11.700Z,17.60
2018-05-27T03:36:39.261Z,17.60
2018-05-27T03:39:06.778Z,17.90
2018-05-27T03:41:34.480Z,18.10
2018-05-27T03:44:02.001Z,18.10
2018-05-27T03:46:29.537Z,17.90
2018-05-27T03:48:57.819Z,17.70
2018-05-27T03:51:25.362Z,17.60
2018-05-27T03:53:53.713Z,17.70
2018-05-27T03:56:21.245Z,17.70
2018-05-27T03:58:48.837Z,17.90
2018-05-27T04:01:16.439Z,18.00
2018-05-27T04:03:44.061Z,17.80
2018-05-27T04:06:23.449Z,17.70
2018-05-27T04:08:51.038Z,17.70
2018-05-27T04:11:18.623Z,17.80
2018-05-27T04:13:46.939Z,17.90
2018-05-27T04:16:14.700Z,17.90
2018-05-27T04:18:42.280Z,18.00
2018-05-27T04:21:09.873Z,18.00
2018-05-27T04:23:37.557Z,18.10
2018-05-27T04:26:05.977Z,17.90
2018-05-27T04:28:33.630Z,17.90
2018-05-27T04:31:01.862Z,18.20
2018-05-27T04:33:30.170Z,18.10
2018-05-27T04:35:57.721Z,18.10
2018-05-27T04:38:25.272Z,17.90
2018-05-27T04:40:52.828Z,17.60
2018-05-27T04:43:20.340Z,17.50
2018-05-27T04:45:47.883Z,17.50
2018-05-27T04:48:15.416Z,17.60
2018-05-27T04:50:43.001Z,17.70
2018-05-27T04:53:10.530Z,17.90
2018-05-27T04:55:38.202Z,17.90
2018-05-27T04:58:05.743Z,17.90
2018-05-27T05:00:33.283Z,18.10
2018-05-27T05:03:01.585Z,18.30
2018-05-27T05:05:29.242Z,18.30
2018-05-27T05:07:56.769Z,18.60
2018-05-27T05:10:25.057Z,18.80
2018-05-27T05:12:52.632Z,18.70
2018-05-27T05:15:20.255Z,18.60
2018-05-27T05:17:48.569Z,18.50
2018-05-27T05:20:16.146Z,18.50
2018-05-27T05:22:43.697Z,18.50
2018-05-27T05:25:11.243Z,18.60
2018-05-27T05:27:38.802Z,18.40
2018-05-27T05:30:06.487Z,18.40
2018-05-27T05:32:34.032Z,18.40
2018-05-27T05:35:01.681Z,18.40
2018-05-27T05:37:29.188Z,18.50
2018-05-27T05:39:58.336Z,18.50
2018-05-27T05:42:25.847Z,18.50
2018-05-27T05:44:54.227Z,19.00
2018-05-27T05:47:22.507Z,19.00
2018-05-27T05:49:50.845Z,19.10
2018-05-27T05:52:18.582Z,19.10
2018-05-27T05:54:46.141Z,19.10
2018-05-27T05:57:13.738Z,19.00
2018-05-27T05:59:41.293Z,19.20
2018-05-27T06:02:08.929Z,19.20
2018-05-27T06:04:36.483Z,19.00
2018-05-27T06:07:04.046Z,19.10
2018-05-27T06:09:31.612Z,19.30
2018-05-27T06:11:59.251Z,19.30
2018-05-27T06:14:26.833Z,19.40
2018-05-27T06:16:54.474Z,19.20
2018-05-27T06:19:21.974Z,19.60
2018-05-27T06:21:49.520Z,19.70
2018-05-27T06:24:17.192Z,19.80
2018-05-27T06:26:44.789Z,19.80
2018-05-27T06:29:12.372Z,20.00
2018-05-27T06:31:39.977Z,19.90
2018-05-27T06:34:08.400Z,19.90
2018-05-27T06:36:35.976Z,19.90
2018-05-27T06:39:03.727Z,20.10
2018-05-27T06:41:31.299Z,20.30
2018-05-27T06:43:59.047Z,20.40
2018-05-27T06:46:26.560Z,20.40
2018-05-27T06:48:54.977Z,20.60
2018-05-27T06:51:22.488Z,20.60
2018-05-27T06:53:50.129Z,20.60
2018-05-27T06:56:17.860Z,20.80
2018-05-27T06:58:45.485Z,20.60
2018-05-27T07:01:13.774Z,21.30
2018-05-27T07:03:41.354Z,21.30
2018-05-27T07:06:08.908Z,21.60
2018-05-27T07:08:36.444Z,21.80
2018-05-27T07:11:04.721Z,22.20
2018-05-27T07:13:32.264Z,22.20
2018-05-27T07:16:00.594Z,22.10
2018-05-27T07:18:28.245Z,22.00
2018-05-27T07:20:55.815Z,23.00
2018-05-27T07:23:23.356Z,22.40
2018-05-27T07:25:50.921Z,22.60
2018-05-27T07:28:18.489Z,23.50
2018-05-27T07:30:46.080Z,23.50
2018-05-27T07:33:13.685Z,24.00
2018-05-27T07:35:41.244Z,24.90
2018-05-27T07:38:08.907Z,26.10
2018-05-27T07:40:36.459Z,26.20
2018-05-27T07:43:04.101Z,25.70
2018-05-27T07:45:31.721Z,25.60
2018-05-27T07:47:59.254Z,26.80
2018-05-27T07:50:26.907Z,27.60
2018-05-27T07:52:54.514Z,28.40
2018-05-27T07:55:22.089Z,26.20
2018-05-27T07:57:50.480Z,25.80
2018-05-27T08:00:18.777Z,25.50
2018-05-27T08:02:46.341Z,25.40
2018-05-27T08:05:13.938Z,26.30
2018-05-27T08:07:41.475Z,26.40
2018-05-27T08:10:09.105Z,26.90
2018-05-27T08:12:36.696Z,28.40
2018-05-27T08:15:04.277Z,28.30
2018-05-27T08:17:31.806Z,27.80
2018-05-27T08:19:59.384Z,28.40
2018-05-27T08:22:26.916Z,28.70
2018-05-27T08:24:54.480Z,27.20
2018-05-27T08:27:21.997Z,26.30
2018-05-27T08:29:49.559Z,26.80
2018-05-27T08:32:17.081Z,26.80
2018-05-27T08:34:45.421Z,28.50
2018-05-27T08:37:12.955Z,28.50
2018-05-27T08:39:40.484Z,29.20
2018-05-27T08:42:08.794Z,29.40
2018-05-27T08:44:36.324Z,29.40
2018-05-27T08:47:04.739Z,29.60
2018-05-27T08:49:32.276Z,29.50
2018-05-27T08:51:59.835Z,30.60
2018-05-27T08:54:27.398Z,30.70
2018-05-27T08:56:54.927Z,30.40
2018-05-27T08:59:23.340Z,30.00
2018-05-27T09:01:50.869Z,30.10
2018-05-27T09:04:19.247Z,30.00
2018-05-27T09:06:47.651Z,30.40
2018-05-27T09:09:15.517Z,30.40
2018-05-27T09:11:43.184Z,30.20
2018-05-27T09:14:10.833Z,30.20
2018-05-27T09:16:38.416Z,29.70
2018-05-27T09:19:05.945Z,29.60
2018-05-27T09:21:33.488Z,30.70
2018-05-27T09:24:01.060Z,30.70
2018-05-27T09:26:28.628Z,30.40
2018-05-27T09:28:56.390Z,29.60
2018-05-27T09:31:23.945Z,29.80
2018-05-27T09:33:51.464Z,29.30
2018-05-27T09:36:19.789Z,28.20
2018-05-27T09:38:47.441Z,28.10
2018-05-27T09:41:15.154Z,27.90
2018-05-27T09:43:43.657Z,27.70
2018-05-27T09:46:11.349Z,27.70
2018-05-27T09:48:38.917Z,27.70
2018-05-27T09:51:06.572Z,27.50
2018-05-27T09:53:34.132Z,27.90
2018-05-27T09:56:01.697Z,28.60
2018-05-27T09:58:29.315Z,29.40
2018-05-27T10:00:57.824Z,28.90
2018-05-27T10:03:25.357Z,28.90
2018-05-27T10:05:52.888Z,29.00
2018-05-27T10:08:21.200Z,30.70
2018-05-27T11:39:05.848Z,29.20
2018-05-27T11:41:33.373Z,29.10
2018-05-27T11:44:00.905Z,29.60
2018-05-27T11:46:28.460Z,30.10
2018-05-27T11:48:56.680Z,30.10
2018-05-27T11:51:24.381Z,29.80
2018-05-27T11:53:52.723Z,29.30
2018-05-27T11:56:20.293Z,29.30
2018-05-27T11:58:47.857Z,28.70
2018-05-27T12:01:15.565Z,28.80
2018-05-27T12:03:43.110Z,29.50
2018-05-27T12:06:10.677Z,28.80
2018-05-27T12:08:38.207Z,28.40
2018-05-27T12:11:06.554Z,28.00
2018-05-27T12:13:34.135Z,28.00
2018-05-27T12:16:01.722Z,28.00
2018-05-27T12:18:29.217Z,27.90
2018-05-27T12:20:56.765Z,27.70
2018-05-27T12:23:24.324Z,27.60
2018-05-27T12:25:51.895Z,27.70
2018-05-27T12:28:19.410Z,27.80
2018-05-27T12:30:46.987Z,27.60
2018-05-27T12:33:14.539Z,27.70
2018-05-27T12:35:42.107Z,27.70
2018-05-27T12:38:09.665Z,28.10
2018-05-27T12:40:37.219Z,28.00
2018-05-27T12:43:04.841Z,28.00
2018-05-27T12:45:33.233Z,27.70
2018-05-27T12:48:00.876Z,27.70
2018-05-27T12:50:28.476Z,27.90
2018-05-27T12:52:56.095Z,27.70
2018-05-27T12:55:24.394Z,27.20
2018-05-27T12:57:52.074Z,27.20
2018-05-27T13:00:19.631Z,27.30
2018-05-27T13:02:47.351Z,27.30
2018-05-27T13:05:14.927Z,27.30
2018-05-27T13:07:42.510Z,27.10
2018-05-27T13:10:10.274Z,27.10
2018-05-27T13:12:37.831Z,27.00
2018-05-27T13:15:05.437Z,26.90
2018-05-27T13:17:33.052Z,26.90
2018-05-27T13:20:00.618Z,26.90
2018-05-27T13:22:28.236Z,26.80
2018-05-27T13:24:56.578Z,26.90
2018-05-27T13:27:24.204Z,26.90
2018-05-27T13:29:51.826Z,26.90
2018-05-27T13:32:20.118Z,26.60
2018-05-27T13:34:47.705Z,26.60
2018-05-27T13:37:15.359Z,26.70
2018-05-27T13:39:42.917Z,26.60
2018-05-27T13:42:10.688Z,26.60
2018-05-27T13:44:38.421Z,26.50
2018-05-27T13:47:05.949Z,26.80
2018-05-27T13:49:33.654Z,26.60
2018-05-27T13:52:01.200Z,26.60
2018-05-27T13:54:28.885Z,26.50
2018-05-27T13:56:56.439Z,26.40
2018-05-27T13:59:23.957Z,26.40
2018-05-27T14:01:52.445Z,26.40
2018-05-27T14:04:20.866Z,26.40
2018-05-27T14:06:48.541Z,26.40
2018-05-27T14:09:16.175Z,26.30
2018-05-27T14:11:43.834Z,26.30
2018-05-27T14:14:11.358Z,26.20
2018-05-27T14:16:39.648Z,26.30
2018-05-27T14:19:07.959Z,26.20
2018-05-27T14:21:35.502Z,26.10
2018-05-27T14:24:03.060Z,26.30
2018-05-27T14:26:30.618Z,26.20
2018-05-27T14:28:58.163Z,26.30
2018-05-27T14:31:25.722Z,26.40
2018-05-27T14:33:53.286Z,26.50
2018-05-27T14:36:20.953Z,26.90
2018-05-27T14:38:48.531Z,27.10
2018-05-27T14:41:16.040Z,27.30
2018-05-27T14:43:44.352Z,27.40
2018-05-27T14:46:12.037Z,27.40
2018-05-27T14:48:39.561Z,27.10
2018-05-27T14:51:07.237Z,27.00
2018-05-27T14:53:34.780Z,26.80
2018-05-27T14:56:02.308Z,27.20
2018-05-27T14:58:30.611Z,26.50
2018-05-27T15:00:58.193Z,26.50
2018-05-27T15:03:25.738Z,26.30
2018-05-27T15:05:53.314Z,26.40
2018-05-27T15:08:20.916Z,26.50
2018-05-27T15:10:49.245Z,26.00
2018-05-27T15:13:16.804Z,26.00
2018-05-27T15:15:44.380Z,26.20
2018-05-27T15:18:11.904Z,26.40
2018-05-27T15:20:39.480Z,26.60
2018-05-27T15:23:07.001Z,26.30
2018-05-27T15:25:34.570Z,26.10
2018-05-27T15:28:02.129Z,26.20
2018-05-27T15:30:29.691Z,26.60
2018-05-27T15:32:57.360Z,27.00
2018-05-27T15:35:24.924Z,26.70
2018-05-27T15:37:52.470Z,27.00
2018-05-27T15:40:20.057Z,26.90
2018-05-27T15:42:47.602Z,26.70
2018-05-27T15:45:15.138Z,26.90
2018-05-27T15:47:42.778Z,26.90
2018-05-27T15:50:10.329Z,27.20
2018-05-27T15:52:38.614Z,26.80
2018-05-27T15:55:06.191Z,26.70
2018-05-27T15:57:33.744Z,26.60
2018-05-27T16:00:01.329Z,26.60
2018-05-27T16:02:29.987Z,26.40
2018-05-27T16:04:57.754Z,26.20
2018-05-27T16:07:25.313Z,26.30
2018-05-27T16:09:52.912Z,26.70
2018-05-27T16:12:20.558Z,26.50
2018-05-27T16:14:48.192Z,26.50
2018-05-27T16:17:15.770Z,26.50
2018-05-27T16:19:43.445Z,26.50
2018-05-27T16:22:11.012Z,26.70
2018-05-27T16:24:38.673Z,26.80
2018-05-27T16:27:06.309Z,26.80
2018-05-27T16:29:33.872Z,26.70
2018-05-27T16:32:01.460Z,26.70
2018-05-27T16:34:29.842Z,26.60
2018-05-27T16:36:58.160Z,26.40
2018-05-27T16:39:25.713Z,26.40
2018-05-27T16:41:53.365Z,26.40
2018-05-27T16:44:20.883Z,26.40
2018-05-27T16:46:48.419Z,26.30
2018-05-27T16:49:15.998Z,26.20
2018-05-27T16:51:43.517Z,26.10
2018-05-27T16:54:11.081Z,26.00
2018-05-27T16:56:38.636Z,26.00
2018-05-27T16:59:06.307Z,26.00
2018-05-27T17:01:33.789Z,25.90
2018-05-27T17:04:01.346Z,25.80
2018-05-27T17:06:28.901Z,25.60
2018-05-27T17:08:56.416Z,25.60
2018-05-27T17:11:23.985Z,25.60
2018-05-27T17:13:51.634Z,25.50
2018-05-27T17:16:19.202Z,25.50
2018-05-27T17:18:46.720Z,25.50
2018-05-27T17:21:15.051Z,25.40
2018-05-27T17:23:43.034Z,25.30
2018-05-27T17:26:10.586Z,25.20
2018-05-27T17:28:38.128Z,25.20
2018-05-27T17:31:05.705Z,25.20
2018-05-27T17:33:33.374Z,25.30
2018-05-27T17:36:00.996Z,25.40
2018-05-27T17:38:28.521Z,25.40
2018-05-27T17:40:56.859Z,25.40
2018-05-27T17:43:24.410Z,25.40
2018-05-27T17:45:51.929Z,25.20
2018-05-27T17:48:19.521Z,25.30
2018-05-27T17:50:47.062Z,25.10
2018-05-27T17:53:14.637Z,25.20
2018-05-27T17:55:42.252Z,25.20
2018-05-27T17:58:09.802Z,25.30
2018-05-27T18:00:38.313Z,25.30
2018-05-27T18:03:05.873Z,25.30
2018-05-27T18:05:33.532Z,25.30
2018-05-27T18:08:01.093Z,25.40
2018-05-27T18:10:28.620Z,25.20
2018-05-27T18:12:56.317Z,25.10
2018-05-27T18:15:23.876Z,25.10
2018-05-27T18:17:51.569Z,25.20
2018-05-27T18:20:19.306Z,25.20
2018-05-27T18:22:46.948Z,25.30
2018-05-27T18:25:14.503Z,25.40
2018-05-27T18:27:42.025Z,25.30
2018-05-27T18:30:10.440Z,25.10
2018-05-27T18:32:38.010Z,25.00
2018-05-27T18:35:05.565Z,25.00
2018-05-27T18:37:33.115Z,24.80
2018-05-27T18:40:00.641Z,24.90
2018-05-27T18:42:28.942Z,24.60
2018-05-27T18:44:56.507Z,24.50
2018-05-27T18:47:24.031Z,24.70
2018-05-27T18:49:52.387Z,24.90
2018-05-27T18:52:19.969Z,24.90
2018-05-27T18:54:48.393Z,25.00
2018-05-27T18:57:15.939Z,24.90
2018-05-27T18:59:43.494Z,24.90
2018-05-27T19:02:11.155Z,24.80
2018-05-27T19:04:38.688Z,24.70
2018-05-27T19:07:07.196Z,24.50
2018-05-27T19:09:34.789Z,24.50
2018-05-27T19:12:02.469Z,24.40
2018-05-27T19:14:30.874Z,24.30
2018-05-27T19:16:59.211Z,24.30
2018-05-27T19:19:26.736Z,24.20
2018-05-27T19:21:54.286Z,24.20
2018-05-27T19:24:21.821Z,23.90
2018-05-27T19:26:49.369Z,23.90
2018-05-27T19:29:17.675Z,23.90
2018-05-27T19:31:45.222Z,23.90
2018-05-27T19:34:12.722Z,23.70
2018-05-27T19:36:40.348Z,23.80
2018-05-27T19:39:08.013Z,23.80
2018-05-27T19:41:35.553Z,23.50
2018-05-27T19:44:03.186Z,23.20
2018-05-27T19:46:30.690Z,23.10
2018-05-27T19:48:58.246Z,22.90
2018-05-27T19:51:25.903Z,23.00
2018-05-27T19:53:53.473Z,23.30
2018-05-27T19:56:21.021Z,23.30
2018-05-27T19:58:48.574Z,23.40
2018-05-27T20:01:16.345Z,23.50
2018-05-27T20:03:43.894Z,23.50
2018-05-27T20:06:11.459Z,23.50
2018-05-27T20:08:38.995Z,23.60
2018-05-27T20:11:06.560Z,23.40
2018-05-27T20:13:34.231Z,23.40
2018-05-27T20:16:01.842Z,23.40
2018-05-27T20:18:29.378Z,23.30
2018-05-27T20:20:57.027Z,23.30
2018-05-27T20:23:24.589Z,23.30
2018-05-27T20:25:52.220Z,23.20
2018-05-27T20:28:19.888Z,22.90
2018-05-27T20:30:47.511Z,22.70
2018-05-27T20:33:15.012Z,22.70
2018-05-27T20:35:42.521Z,22.70
2018-05-27T20:38:10.949Z,23.00
2018-05-27T20:40:38.677Z,23.00
2018-05-27T20:43:06.259Z,23.20
2018-05-27T20:45:34.017Z,23.20
2018-05-27T20:48:01.566Z,23.20
2018-05-27T20:50:29.117Z,23.20
2018-05-27T20:52:56.685Z,23.20
2018-05-27T20:55:24.217Z,23.10
2018-05-27T20:57:52.518Z,22.70
2018-05-27T21:00:20.064Z,22.70
2018-05-27T21:02:47.708Z,22.60
2018-05-27T21:05:16.023Z,22.90
2018-05-27T21:07:43.565Z,22.90
2018-05-27T21:10:11.124Z,22.80
2018-05-27T21:12:38.656Z,23.10
2018-05-27T21:15:07.076Z,22.80
2018-05-27T21:17:34.616Z,22.80
2018-05-27T21:20:02.295Z,22.60
2018-05-27T21:22:29.837Z,22.40
2018-05-27T21:24:58.160Z,22.20
2018-05-27T21:27:25.689Z,22.20
2018-05-27T21:29:53.221Z,22.20
2018-05-27T21:32:20.768Z,22.20
2018-05-27T21:34:49.104Z,22.70
2018-05-27T21:37:16.641Z,22.70
2018-05-27T21:39:44.174Z,22.80
2018-05-27T21:42:11.879Z,22.80
2018-05-27T21:44:39.464Z,22.80
2018-05-27T21:47:07.160Z,22.50
2018-05-27T21:49:34.735Z,22.30
2018-05-27T21:52:02.332Z,22.50
2018-05-27T21:54:29.880Z,22.70
2018-05-27T21:56:57.509Z,22.80
2018-05-27T21:59:25.192Z,22.70
2018-05-27T22:01:52.737Z,22.30
2018-05-27T22:04:20.284Z,22.00
2018-05-27T22:06:47.860Z,21.90
2018-05-27T22:09:15.446Z,21.80
2018-05-27T22:11:43.137Z,21.70
2018-05-27T22:14:11.622Z,21.60
2018-05-27T22:16:39.931Z,21.60
2018-05-27T22:19:07.647Z,21.60
2018-05-27T22:21:35.954Z,21.60
2018-05-27T22:24:03.597Z,21.70
2018-05-27T22:26:31.276Z,21.50
2018-05-27T22:28:58.837Z,21.40
2018-05-27T22:31:26.378Z,21.30
2018-05-27T22:33:54.043Z,21.20
2018-05-27T22:36:21.624Z,21.10
2018-05-27T22:38:49.376Z,21.10
2018-05-27T22:41:16.955Z,21.00
2018-05-27T22:43:44.528Z,21.00
2018-05-27T22:46:12.067Z,20.90
2018-05-27T22:48:39.766Z,21.00
2018-05-27T22:51:07.377Z,21.10
2018-05-27T22:53:35.135Z,21.30
2018-05-27T22:56:02.693Z,21.20
2018-05-27T22:58:30.221Z,21.30
2018-05-27T23:00:58.588Z,21.30
2018-05-27T23:03:26.885Z,21.20
2018-05-27T23:05:54.564Z,21.20
2018-05-27T23:08:22.329Z,21.00
2018-05-27T23:10:49.882Z,21.30
2018-05-27T23:13:17.507Z,21.30
2018-05-27T23:15:46.025Z,21.30
2018-05-27T23:18:13.614Z,21.20
2018-05-27T23:20:41.221Z,21.30
2018-05-27T23:23:09.542Z,21.20
2018-05-27T23:25:37.090Z,21.20
2018-05-27T23:28:04.620Z,21.10
2018-05-27T23:30:32.235Z,20.80
2018-05-27T23:32:59.996Z,20.50
2018-05-27T23:35:27.821Z,20.30
2018-05-27T23:37:55.486Z,20.10
2018-05-27T23:40:23.013Z,20.20
2018-05-27T23:42:51.537Z,20.40
2018-05-27T23:45:19.092Z,20.40
2018-05-27T23:47:46.745Z,20.60
2018-05-27T23:50:14.400Z,20.70
2018-05-27T23:52:42.060Z,20.80
2018-05-27T23:55:09.616Z,20.70
2018-05-27T23:57:37.301Z,20.70
